Millstadt, IL

7:41 AM CST on December 20, 2014 (GMT -0600)
Millstadt | Change Station
CLOSE
Current Station
Personal Weather Station
Location: Millstadt, IL
Elevation: 620 ft
Nearby Weather Stations

Elev 620 ft 38.50 °N, 90.12 °W | Updated 2 seconds ago

Overcast
Overcast
33.3 °F
Feels Like 30 °F
N
3.5
Wind Variable Wind from SE
Gusts 3.5 mph

Today
High -- | Low -- °F
--% Chance of Precip.
Yesterday
High -- | Low -- °F
Precip. -- in
7:13 AM 4:42 PM
Waning Crescent, 3% visible
Pressure 30.28 in
Visibility 8.0 miles
Clouds Mostly Cloudy 2600 ft
Overcast 3200 ft
Windchill 30 °F
Dew Point 26 °F
Humidity 75%
Rainfall 0.00 in
Snow Depth Not available.
UV 0 out of 12
Pollen 2.10 out of 12
Air Quality Not available.
Flu Activity Not available.
SPECI KCPS 201323Z 16003KT 8SM BKN026 OVC032 02/M01 A3028 RMK AO2 T00171011

More Conditions Fewer Conditions

Pressure 30.28 in
Visibility 8.0 miles
Clouds Mostly Cloudy 2600 ft
Overcast 3200 ft
Windchill 30 °F
Dew Point 26 °F
Humidity 75%
Rainfall 0.00 in
Snow Depth Not available.
UV 0 out of 12
Pollen 2.10 out of 12
Air Quality Not available.
Flu Activity Not available.
SPECI KCPS 201323Z 16003KT 8SM BKN026 OVC032 02/M01 A3028 RMK AO2 T00171011

More Conditions Fewer Conditions

10-Day Weather Forecast

Almanac

Astronomy

Dec. 20, 2014 Rise Set
Actual Time
Civil Twilight
Nautical Twilight
Astronomical Twilight
Moon
Length of Visible Light
Length of Day
Tomorrow will be .
, % of the Moon is Illuminated

Today's Extremes

State Highs State Lows

Community

WunderPhotos

Upload Photos

1,779,171 photos uploaded!

WunderBlogs® & News

Nearby

Air Quality

  Air Quality AQ Index Pollutant
Not available.

Snow Depth

Station Depth Elevation

Earthquake Activity

City Distance Mag. Time & Date
Minimum magnitude displayed is 2.5.

Coastal Water Temperatures

Place Temperature

Nearby Weather Stations